createdAt,value
2022-12-03T00:01:20.902Z,7
2022-12-03T00:03:21.360Z,7.041
2022-12-03T00:04:20.659Z,7.061
2022-12-03T00:05:21.354Z,7.061
2022-12-03T00:06:20.128Z,7.061
2022-12-03T00:07:20.080Z,7.061
2022-12-03T00:08:20.098Z,7.061
2022-12-03T00:09:20.244Z,7.031
2022-12-03T00:10:21.190Z,7.061
2022-12-03T00:11:20.044Z,7.041
2022-12-03T00:12:20.241Z,7
2022-12-03T00:13:20.418Z,7.010
2022-12-03T00:14:20.312Z,7.061
2022-12-03T00:15:20.538Z,7.061
2022-12-03T00:16:20.941Z,7.051
2022-12-03T00:17:21.254Z,7.061
2022-12-03T00:18:19.960Z,7.061
2022-12-03T00:19:21.041Z,7.061
2022-12-03T00:20:20.754Z,7.031
2022-12-03T00:21:20.897Z,7
2022-12-03T00:23:20.723Z,7.031
2022-12-03T00:24:20.946Z,7
2022-12-03T00:25:21.345Z,6.989
2022-12-03T00:26:20.355Z,6.989
2022-12-03T00:27:20.380Z,6.979
2022-12-03T00:28:20.732Z,6.936
2022-12-03T00:29:20.616Z,6.958
2022-12-03T00:30:21.097Z,7
2022-12-03T00:31:19.969Z,6.936
2022-12-03T00:32:20.116Z,6.936
2022-12-03T00:33:19.907Z,6.936
2022-12-03T00:35:20.880Z,6.989
2022-12-03T00:36:20.312Z,6.989
2022-12-03T00:37:19.910Z,7
2022-12-03T00:39:20.488Z,6.958
2022-12-03T00:40:20.145Z,6.958
2022-12-03T00:41:20.189Z,6.936
2022-12-03T00:42:20.189Z,6.936
2022-12-03T00:43:19.897Z,6.989
2022-12-03T00:45:19.727Z,6.936
2022-12-03T00:46:27.113Z,6.936
2022-12-03T00:47:20.390Z,6.936
2022-12-03T00:48:20.368Z,6.936
2022-12-03T00:49:19.898Z,6.936
2022-12-03T00:51:20.634Z,6.936
2022-12-03T00:52:20.503Z,6.936
2022-12-03T00:53:20.684Z,6.936
2022-12-03T00:54:20.146Z,6.936
2022-12-03T00:55:20.304Z,6.936
2022-12-03T00:56:19.673Z,6.947
2022-12-03T00:57:21.135Z,6.936
2022-12-03T00:58:20.711Z,6.936
2022-12-03T00:59:20.435Z,6.936
2022-12-03T01:01:22.912Z,6.936
2022-12-03T01:03:20.648Z,6.912
2022-12-03T01:04:20.685Z,6.912
2022-12-03T01:05:21.351Z,6.936
2022-12-03T01:06:20.226Z,6.936
2022-12-03T01:07:20.382Z,6.936
2022-12-03T01:08:20.551Z,6.936
2022-12-03T01:09:20.229Z,6.936
2022-12-03T01:10:20.888Z,6.912
2022-12-03T01:11:20.912Z,6.936
2022-12-03T01:12:21.230Z,6.936
2022-12-03T01:13:20.754Z,6.936
2022-12-03T01:14:20.640Z,6.936
2022-12-03T01:15:20.592Z,6.936
2022-12-03T01:16:20.589Z,6.936
2022-12-03T01:17:21.047Z,6.958
2022-12-03T01:18:19.672Z,6.936
2022-12-03T01:19:20.719Z,6.936
2022-12-03T01:20:20.748Z,6.936
2022-12-03T01:21:20.521Z,6.936
2022-12-03T01:23:20.559Z,6.936
2022-12-03T01:25:20.918Z,6.936
2022-12-03T01:26:21.038Z,6.936
2022-12-03T01:27:20.306Z,6.947
2022-12-03T01:28:20.224Z,6.958
2022-12-03T01:29:25.003Z,6.936
2022-12-03T01:30:20.605Z,6.936
2022-12-03T01:31:20.738Z,6.936
2022-12-03T01:33:25.192Z,6.936
2022-12-03T01:34:19.349Z,6.936
2022-12-03T01:35:19.756Z,6.895
2022-12-03T01:36:19.879Z,6.936
2022-12-03T01:37:28.759Z,6.936
2022-12-03T01:38:20.470Z,6.936
2022-12-03T01:39:19.534Z,6.936
2022-12-03T01:40:20.333Z,6.936
2022-12-03T01:41:20.356Z,6.926
2022-12-03T01:42:20.363Z,6.936
2022-12-03T01:43:25.112Z,6.958
2022-12-03T01:44:20.316Z,6.936
2022-12-03T01:45:25.832Z,6.936
2022-12-03T01:47:34.670Z,6.947
2022-12-03T01:49:19.922Z,6.947
2022-12-03T01:50:20.805Z,6.936
2022-12-03T01:51:20.738Z,6.936
2022-12-03T01:53:35.046Z,6.926
2022-12-03T01:54:19.664Z,6.926
2022-12-03T01:55:20.539Z,6.936
2022-12-03T01:56:20.711Z,6.895
2022-12-03T01:57:34.169Z,6.936
2022-12-03T01:58:20.258Z,6.936
2022-12-03T01:59:20.306Z,6.936
2022-12-03T02:00:21.410Z,6.936
2022-12-03T02:01:20.971Z,6.936
2022-12-03T02:02:20.004Z,6.875
2022-12-03T02:03:19.928Z,6.926
2022-12-03T02:04:20.935Z,6.936
2022-12-03T02:05:20.242Z,6.936
2022-12-03T02:06:20.141Z,6.936
2022-12-03T02:07:20.257Z,6.916
2022-12-03T02:08:20.363Z,6.885
2022-12-03T02:09:34.753Z,6.926
2022-12-03T02:10:20.902Z,6.936
2022-12-03T02:11:20.835Z,6.936
2022-12-03T02:13:20.651Z,6.936
2022-12-03T02:14:20.292Z,6.926
2022-12-03T02:15:20.482Z,6.895
2022-12-03T02:16:20.973Z,6.936
2022-12-03T02:17:20.231Z,6.936
2022-12-03T02:18:20.286Z,6.936
2022-12-03T02:19:20.771Z,6.936
2022-12-03T02:21:20.199Z,6.936
2022-12-03T02:22:20.345Z,6.936
2022-12-03T02:23:20.788Z,6.926
2022-12-03T02:25:40.037Z,6.936
2022-12-03T02:26:20.194Z,6.936
2022-12-03T02:27:20.304Z,6.936
2022-12-03T02:28:19.782Z,6.936
2022-12-03T02:29:20.466Z,6.936
2022-12-03T02:31:20.237Z,6.936
2022-12-03T02:32:19.738Z,6.926
2022-12-03T02:33:19.941Z,6.936
2022-12-03T02:35:19.923Z,6.936
2022-12-03T02:37:20.914Z,6.919
2022-12-03T02:38:20.787Z,6.936
2022-12-03T02:39:20.988Z,6.936
2022-12-03T02:40:20.135Z,6.936
2022-12-03T02:41:20.449Z,6.919
2022-12-03T02:43:20.091Z,6.936
2022-12-03T02:44:20.271Z,6.936
2022-12-03T02:45:20.762Z,6.936
2022-12-03T02:46:21.119Z,6.936
2022-12-03T02:47:20.814Z,6.936
2022-12-03T02:48:20.440Z,6.936
2022-12-03T02:49:20.076Z,6.936
2022-12-03T02:51:19.976Z,6.936
2022-12-03T02:53:20.355Z,6.936
2022-12-03T02:54:19.947Z,6.936
2022-12-03T02:55:20.949Z,6.936
2022-12-03T02:56:20.398Z,6.936
2022-12-03T02:57:20.734Z,6.936
2022-12-03T02:59:20.586Z,6.936
2022-12-03T03:00:21.839Z,6.906
2022-12-03T03:01:20.901Z,6.936
2022-12-03T03:02:21.599Z,6.936
2022-12-03T03:03:20.987Z,6.926
2022-12-03T03:04:19.933Z,6.926
2022-12-03T03:05:21.526Z,6.936
2022-12-03T03:06:20.591Z,6.936
2022-12-03T03:07:21.022Z,6.936
2022-12-03T03:08:20.080Z,6.936
2022-12-03T03:09:19.987Z,6.936
2022-12-03T03:10:19.816Z,6.936
2022-12-03T03:12:02.271Z,6.936
2022-12-03T03:13:20.048Z,6.916
2022-12-03T03:14:19.877Z,6.936
2022-12-03T03:15:21.207Z,6.916
2022-12-03T03:16:20.506Z,6.916
2022-12-03T03:17:21.035Z,6.936
2022-12-03T03:18:19.601Z,6.936
2022-12-03T03:19:20.259Z,6.936
2022-12-03T03:20:20.904Z,6.936
2022-12-03T03:21:20.510Z,6.926
2022-12-03T03:22:20.521Z,6.936
2022-12-03T03:23:20.590Z,6.936
2022-12-03T03:24:20.498Z,6.936
2022-12-03T03:25:20.716Z,6.936
2022-12-03T03:26:20.500Z,6.936
2022-12-03T03:27:20.682Z,6.936
2022-12-03T03:28:20.894Z,6.936
2022-12-03T03:29:21.094Z,6.936
2022-12-03T03:30:20.832Z,6.936
2022-12-03T03:31:20.943Z,6.926
2022-12-03T03:33:20.870Z,6.936
2022-12-03T03:34:20.804Z,6.936
2022-12-03T03:35:20.639Z,6.936
2022-12-03T03:37:20.131Z,6.936
2022-12-03T03:38:20.625Z,6.936
2022-12-03T03:39:21.304Z,6.936
2022-12-03T03:40:20.921Z,6.936
2022-12-03T03:41:20.734Z,6.936
2022-12-03T03:42:20.471Z,6.926
2022-12-03T03:43:20.382Z,6.916
2022-12-03T03:44:20.361Z,6.936
2022-12-03T03:45:25.695Z,6.936
2022-12-03T03:46:21.284Z,6.936
2022-12-03T03:47:20.376Z,6.936
2022-12-03T03:48:19.970Z,6.936
2022-12-03T03:49:21.311Z,6.936
2022-12-03T03:50:20.553Z,6.936
2022-12-03T03:51:20.706Z,6.936
2022-12-03T03:53:20.281Z,6.936
2022-12-03T03:54:19.961Z,6.936
2022-12-03T03:55:21.902Z,6.936
2022-12-03T03:56:25.406Z,6.936
2022-12-03T03:57:20.254Z,6.936
2022-12-03T03:58:20.099Z,6.936
2022-12-03T03:59:19.877Z,6.936
2022-12-03T04:00:26.009Z,6.936
2022-12-03T04:01:20.743Z,6.936
2022-12-03T04:02:25.613Z,6.936
2022-12-03T04:03:20.524Z,6.936
2022-12-03T04:04:20.480Z,6.936
2022-12-03T04:05:20.709Z,6.916
2022-12-03T04:06:20.647Z,6.916
2022-12-03T04:07:21.050Z,6.895
2022-12-03T04:08:28.195Z,6.875
2022-12-03T04:09:20.004Z,6.875
2022-12-03T04:10:33.681Z,6.936
2022-12-03T04:11:20.948Z,6.912
2022-12-03T04:13:19.661Z,6.883
2022-12-03T04:14:34.536Z,6.901
2022-12-03T04:15:20.259Z,6.901
2022-12-03T04:16:20.269Z,6.875
2022-12-03T04:17:20.571Z,6.928
2022-12-03T04:19:20.837Z,6.875
2022-12-03T04:20:21.234Z,6.875
2022-12-03T04:21:20.784Z,6.906
2022-12-03T04:22:20.539Z,6.924
2022-12-03T04:23:20.631Z,6.875
2022-12-03T04:24:20.786Z,6.875
2022-12-03T04:25:21.007Z,6.883
2022-12-03T04:26:19.715Z,6.875
2022-12-03T04:27:20.772Z,6.875
2022-12-03T04:29:20.697Z,6.875
2022-12-03T04:31:20.998Z,6.895
2022-12-03T04:32:19.946Z,6.906
2022-12-03T04:33:20.493Z,6.875
2022-12-03T04:34:20.430Z,6.875
2022-12-03T04:35:21.154Z,6.875
2022-12-03T04:36:20.430Z,6.875
2022-12-03T04:37:19.979Z,6.875
2022-12-03T04:38:19.956Z,6.895
2022-12-03T04:39:21.184Z,6.875
2022-12-03T04:40:20.107Z,6.875
2022-12-03T04:41:20.133Z,6.875
2022-12-03T04:42:20.241Z,6.875
2022-12-03T04:43:20.533Z,6.875
2022-12-03T04:44:20.836Z,6.885
2022-12-03T04:45:20.967Z,6.936
2022-12-03T04:46:20.889Z,6.916
2022-12-03T04:47:21.096Z,6.895
2022-12-03T04:48:20.342Z,6.895
2022-12-03T04:49:20.935Z,6.875
2022-12-03T04:51:20.592Z,6.885
2022-12-03T04:53:20.470Z,6.875
2022-12-03T04:54:47.901Z,6.875
2022-12-03T04:55:20.456Z,6.875
2022-12-03T04:56:20.076Z,6.895
2022-12-03T04:57:19.260Z,6.875
2022-12-03T04:58:19.998Z,6.875
2022-12-03T04:59:23.774Z,6.875
2022-12-03T05:00:21.193Z,6.875
2022-12-03T05:01:20.572Z,6.875
2022-12-03T05:02:21.079Z,6.885
2022-12-03T05:03:19.915Z,6.875
2022-12-03T05:04:20.667Z,6.926
2022-12-03T05:05:20.975Z,6.875
2022-12-03T05:06:20.726Z,6.926
2022-12-03T05:07:20.826Z,6.875
2022-12-03T05:08:21.069Z,6.875
2022-12-03T05:09:20.618Z,6.875
2022-12-03T05:11:20.316Z,6.875
2022-12-03T05:12:20.321Z,6.875
2022-12-03T05:13:20.021Z,6.875
2022-12-03T05:14:19.552Z,6.875
2022-12-03T05:15:20.331Z,6.875
2022-12-03T05:16:20.003Z,6.843
2022-12-03T05:17:19.731Z,6.833
2022-12-03T05:18:20.310Z,6.875
2022-12-03T05:19:19.980Z,6.875
2022-12-03T05:20:19.741Z,6.875
2022-12-03T05:21:20.102Z,6.875
2022-12-03T05:22:19.599Z,6.875
2022-12-03T05:23:20.501Z,6.875
2022-12-03T05:24:19.984Z,6.875
2022-12-03T05:25:19.818Z,6.864
2022-12-03T05:26:20.541Z,6.875
2022-12-03T05:27:23.635Z,6.875
2022-12-03T05:28:19.287Z,6.875
2022-12-03T05:29:20.201Z,6.875
2022-12-03T05:30:20.330Z,6.875
2022-12-03T05:31:19.674Z,6.875
2022-12-03T05:32:20.686Z,6.875
2022-12-03T05:33:20.177Z,6.875
2022-12-03T05:34:19.354Z,6.854
2022-12-03T05:35:20.429Z,6.864
2022-12-03T05:36:19.959Z,6.875
2022-12-03T05:37:20.496Z,6.875
2022-12-03T05:38:20.422Z,6.875
2022-12-03T05:39:20.220Z,6.833
2022-12-03T05:40:20.280Z,6.801
2022-12-03T05:41:19.819Z,6.811
2022-12-03T05:42:20.271Z,6.811
2022-12-03T05:43:20.058Z,6.811
2022-12-03T05:44:27.434Z,6.822
2022-12-03T05:45:20.797Z,6.822
2022-12-03T05:46:20.552Z,6.843
2022-12-03T05:47:20.888Z,6.875
2022-12-03T05:48:21.249Z,6.875
2022-12-03T05:49:20.683Z,6.875
2022-12-03T05:51:21.591Z,6.837
2022-12-03T05:53:20.908Z,6.794
2022-12-03T05:54:20.715Z,6.811
2022-12-03T05:55:21.337Z,6.875
2022-12-03T05:57:20.227Z,6.821
2022-12-03T05:58:20.664Z,6.811
2022-12-03T05:59:20.576Z,6.839
2022-12-03T06:00:21.300Z,6.811
2022-12-03T06:01:20.325Z,6.811
2022-12-03T06:03:20.599Z,6.829
2022-12-03T06:05:20.268Z,6.875
2022-12-03T06:06:19.991Z,6.875
2022-12-03T06:07:22.140Z,6.811
2022-12-03T06:08:20.280Z,6.811
2022-12-03T06:09:20.807Z,6.811
2022-12-03T06:11:20.347Z,6.875
2022-12-03T06:12:20.823Z,6.875
2022-12-03T06:13:20.870Z,6.854
2022-12-03T06:15:20.735Z,6.833
2022-12-03T06:17:25.187Z,6.875
2022-12-03T06:18:20.223Z,6.875
2022-12-03T06:19:20.846Z,6.875
2022-12-03T06:21:25.407Z,6.811
2022-12-03T06:22:20.613Z,6.811
2022-12-03T06:23:21.373Z,6.843
2022-12-03T06:24:20.586Z,6.811
2022-12-03T06:25:21.000Z,6.833
2022-12-03T06:26:19.668Z,6.833
2022-12-03T06:27:21.587Z,6.811
2022-12-03T06:28:21.245Z,6.811
2022-12-03T06:29:20.823Z,6.833
2022-12-03T06:31:27.754Z,6.811
2022-12-03T06:32:20.849Z,6.811
2022-12-03T06:33:29.050Z,6.811
2022-12-03T06:34:20.679Z,6.811
2022-12-03T06:35:34.196Z,6.854
2022-12-03T06:36:23.259Z,6.854
2022-12-03T06:37:26.157Z,6.811
2022-12-03T06:38:20.506Z,6.811
2022-12-03T06:39:34.395Z,6.811
2022-12-03T06:41:20.685Z,6.811
2022-12-03T06:42:20.949Z,6.811
2022-12-03T06:43:21.018Z,6.811
2022-12-03T06:44:19.904Z,6.811
2022-12-03T06:45:21.603Z,6.811
2022-12-03T06:46:21.016Z,6.811
2022-12-03T06:47:34.318Z,6.781
2022-12-03T06:48:21.199Z,6.781
2022-12-03T06:49:28.777Z,6.811
2022-12-03T06:51:28.491Z,6.811
2022-12-03T06:52:20.957Z,6.811
2022-12-03T06:53:40.350Z,6.791
2022-12-03T06:54:20.604Z,6.791
2022-12-03T06:55:21.236Z,6.801
2022-12-03T06:56:22.514Z,6.811
2022-12-03T06:57:35.056Z,6.811
2022-12-03T06:59:20.826Z,6.811
2022-12-03T07:01:20.357Z,6.811
2022-12-03T07:02:20.997Z,6.811
2022-12-03T07:03:20.537Z,6.811
2022-12-03T07:04:20.672Z,6.791
2022-12-03T07:05:43.440Z,6.811
2022-12-03T07:07:35.492Z,6.811
2022-12-03T07:09:40.239Z,6.801
2022-12-03T07:11:49.394Z,6.811
2022-12-03T07:12:20.942Z,6.811
2022-12-03T07:13:39.898Z,6.811
2022-12-03T07:15:20.548Z,6.811
2022-12-03T07:16:20.454Z,6.811
2022-12-03T07:17:21.309Z,6.811
2022-12-03T07:18:20.742Z,6.811
2022-12-03T07:19:21.467Z,6.822
2022-12-03T07:20:21.194Z,6.822
2022-12-03T07:21:48.323Z,6.811
2022-12-03T07:22:20.282Z,6.811
2022-12-03T07:23:20.582Z,6.811
2022-12-03T07:24:21.133Z,6.811
2022-12-03T07:25:25.635Z,6.811
2022-12-03T07:27:49.474Z,6.822
2022-12-03T07:29:20.555Z,6.811
2022-12-03T07:30:21.643Z,6.811
2022-12-03T07:31:49.160Z,6.811
2022-12-03T07:32:21.197Z,6.811
2022-12-03T07:33:21.013Z,6.801
2022-12-03T07:34:20.756Z,6.811
2022-12-03T07:35:21.551Z,6.811
2022-12-03T07:37:23.343Z,6.811
2022-12-03T07:39:21.424Z,6.811
2022-12-03T07:40:20.518Z,6.811
2022-12-03T07:41:20.578Z,6.811
2022-12-03T07:43:20.542Z,6.811
2022-12-03T07:45:21.425Z,6.781
2022-12-03T07:47:20.495Z,6.781
2022-12-03T07:48:20.918Z,6.811
2022-12-03T07:49:21.434Z,6.75
2022-12-03T07:50:21.367Z,6.75
2022-12-03T07:51:26.187Z,6.811
2022-12-03T07:52:20.904Z,6.811
2022-12-03T07:53:21.537Z,6.811
2022-12-03T07:54:21.139Z,6.801
2022-12-03T07:55:20.880Z,6.75
2022-12-03T07:57:21.034Z,6.760
2022-12-03T07:58:20.344Z,6.760
2022-12-03T07:59:20.674Z,6.75
2022-12-03T08:01:21.563Z,6.75
2022-12-03T08:02:28.933Z,6.760
2022-12-03T08:03:20.898Z,6.760
2022-12-03T08:05:20.653Z,6.770
2022-12-03T08:06:20.918Z,6.781
2022-12-03T08:07:21.455Z,6.791
2022-12-03T08:08:20.985Z,6.811
2022-12-03T08:11:20.502Z,6.770
2022-12-03T08:12:21.235Z,6.760
2022-12-03T08:13:20.517Z,6.760
2022-12-03T08:15:21.284Z,6.811
2022-12-03T08:16:21.123Z,6.811
2022-12-03T08:17:20.741Z,6.791
2022-12-03T08:19:21.337Z,6.75
2022-12-03T08:21:20.524Z,6.770
2022-12-03T08:23:20.837Z,6.791
2022-12-03T08:24:21.061Z,6.739
2022-12-03T08:25:20.653Z,6.781
2022-12-03T08:27:20.880Z,6.811
2022-12-03T08:28:20.863Z,6.75
2022-12-03T08:29:21.822Z,6.781
2022-12-03T08:31:21.370Z,6.781
2022-12-03T08:32:21.655Z,6.811
2022-12-03T08:33:21.508Z,6.781
2022-12-03T08:34:20.867Z,6.770
2022-12-03T08:35:21.960Z,6.75
2022-12-03T08:37:21.685Z,6.75
2022-12-03T08:38:21.544Z,6.801
2022-12-03T08:39:21.587Z,6.774
2022-12-03T08:41:20.994Z,6.741
2022-12-03T08:42:24.990Z,6.723
2022-12-03T08:43:20.308Z,6.723
2022-12-03T08:44:26.096Z,6.731
2022-12-03T08:45:20.669Z,6.731
2022-12-03T08:46:25.730Z,6.75
2022-12-03T08:47:21.966Z,6.75
2022-12-03T08:48:26.259Z,6.760
2022-12-03T08:49:21.003Z,6.760
2022-12-03T08:50:25.889Z,6.75
2022-12-03T08:51:21.887Z,6.75
2022-12-03T08:52:21.097Z,6.75
2022-12-03T08:53:19.829Z,6.760
2022-12-03T08:54:29.442Z,6.75
2022-12-03T08:55:21.409Z,6.75
2022-12-03T08:57:21.197Z,6.718
2022-12-03T08:58:28.887Z,6.686
2022-12-03T08:59:21.557Z,6.729
2022-12-03T09:00:30.550Z,6.75
2022-12-03T09:01:21.344Z,6.75
2022-12-03T09:02:34.522Z,6.75
2022-12-03T09:03:21.465Z,6.75
2022-12-03T09:04:26.345Z,6.75
2022-12-03T09:05:21.510Z,6.75
2022-12-03T09:06:34.602Z,6.75
2022-12-03T09:07:21.134Z,6.75
2022-12-03T09:08:21.138Z,6.739
2022-12-03T09:09:20.430Z,6.697
2022-12-03T09:10:21.074Z,6.686
2022-12-03T09:11:19.913Z,6.686
2022-12-03T09:12:21.151Z,6.686
2022-12-03T09:13:20.899Z,6.686
2022-12-03T09:14:26.252Z,6.686
2022-12-03T09:15:20.857Z,6.686
2022-12-03T09:16:20.677Z,6.686
2022-12-03T09:17:21.547Z,6.686
2022-12-03T09:18:21.528Z,6.686
2022-12-03T09:19:21.526Z,6.686
2022-12-03T09:20:21.256Z,6.686
2022-12-03T09:21:20.984Z,6.686
2022-12-03T09:22:35.258Z,6.686
2022-12-03T09:23:20.892Z,6.708
2022-12-03T09:24:21.420Z,6.75
2022-12-03T09:25:21.309Z,6.686
2022-12-03T09:26:35.340Z,6.676
2022-12-03T09:27:21.158Z,6.686
2022-12-03T09:28:34.801Z,6.686
2022-12-03T09:29:21.436Z,6.708
2022-12-03T09:30:43.536Z,6.729
2022-12-03T09:31:20.955Z,6.729
2022-12-03T09:32:26.335Z,6.686
2022-12-03T09:33:20.822Z,6.686
2022-12-03T09:35:22.090Z,6.686
2022-12-03T09:37:21.308Z,6.686
2022-12-03T09:38:49.213Z,6.686
2022-12-03T09:39:21.046Z,6.686
2022-12-03T09:40:48.575Z,6.686
2022-12-03T09:41:21.703Z,6.686
2022-12-03T09:42:49.777Z,6.686
2022-12-03T09:43:21.132Z,6.686
2022-12-03T09:44:25.587Z,6.686
2022-12-03T09:45:22.236Z,6.686
2022-12-03T09:46:21.045Z,6.686
2022-12-03T09:47:20.907Z,6.686
2022-12-03T09:48:21.339Z,6.666
2022-12-03T09:49:23.925Z,6.686
2022-12-03T09:51:20.023Z,6.686
2022-12-03T09:52:21.254Z,6.686
2022-12-03T09:53:20.531Z,6.686
2022-12-03T09:54:21.116Z,6.686
2022-12-03T09:55:20.712Z,6.686
2022-12-03T09:56:20.960Z,6.686
2022-12-03T09:57:21.495Z,6.686
2022-12-03T09:58:21.322Z,6.686
2022-12-03T09:59:21.374Z,6.666
2022-12-03T10:01:21.835Z,6.686
2022-12-03T10:03:25.222Z,6.686
2022-12-03T10:04:21.062Z,6.686
2022-12-03T10:05:20.736Z,6.676
2022-12-03T10:07:21.054Z,6.686
2022-12-03T10:09:21.759Z,6.718
2022-12-03T10:11:20.511Z,6.686
2022-12-03T10:12:20.796Z,6.697
2022-12-03T10:13:25.685Z,6.686
2022-12-03T10:14:20.973Z,6.686
2022-12-03T10:15:22.250Z,6.686
2022-12-03T10:16:21.297Z,6.686
2022-12-03T10:17:22.061Z,6.686
2022-12-03T10:19:21.259Z,6.686
2022-12-03T10:20:21.257Z,6.686
2022-12-03T10:21:21.811Z,6.686
2022-12-03T10:22:21.453Z,6.686
2022-12-03T10:23:20.961Z,6.686
2022-12-03T10:25:21.487Z,6.718
2022-12-03T10:26:21.780Z,6.708
2022-12-03T10:27:21.741Z,6.686
2022-12-03T10:29:21.094Z,6.708
2022-12-03T10:30:20.876Z,6.708
2022-12-03T10:31:20.709Z,6.708
2022-12-03T10:32:21.443Z,6.697
2022-12-03T10:33:26.125Z,6.686
2022-12-03T10:34:21.250Z,6.686
2022-12-03T10:35:21.679Z,6.718
2022-12-03T10:37:22.644Z,6.729
2022-12-03T10:39:21.266Z,6.686
2022-12-03T10:41:21.051Z,6.686
2022-12-03T10:42:20.477Z,6.686
2022-12-03T10:43:21.089Z,6.686
2022-12-03T10:44:20.741Z,6.686
2022-12-03T10:45:21.729Z,6.686
2022-12-03T10:47:21.659Z,6.686
2022-12-03T10:49:21.110Z,6.676
2022-12-03T10:51:20.784Z,6.666
2022-12-03T10:52:25.616Z,6.686
2022-12-03T10:53:20.818Z,6.676
2022-12-03T10:54:21.661Z,6.686
2022-12-03T10:55:21.833Z,6.686
2022-12-03T10:56:21.824Z,6.686
2022-12-03T10:57:22.018Z,6.666
2022-12-03T10:58:20.632Z,6.666
2022-12-03T10:59:21.681Z,6.686
2022-12-03T11:00:23.190Z,6.697
2022-12-03T11:01:21.043Z,6.686
2022-12-03T11:03:21.065Z,6.686
2022-12-03T11:04:20.917Z,6.686
2022-12-03T11:05:21.833Z,6.686
2022-12-03T11:07:22.105Z,6.686
2022-12-03T11:08:20.549Z,6.686
2022-12-03T11:09:21.497Z,6.625
2022-12-03T11:10:20.833Z,6.625
2022-12-03T11:11:21.800Z,6.686
2022-12-03T11:13:25.636Z,6.686
2022-12-03T11:14:28.917Z,6.686
2022-12-03T11:15:21.961Z,6.686
2022-12-03T11:17:21.313Z,6.686
2022-12-03T11:18:21.056Z,6.686
2022-12-03T11:19:20.616Z,6.686
2022-12-03T11:20:29.018Z,6.686
2022-12-03T11:21:29.035Z,5.5
2022-12-03T11:22:20.820Z,5.5
2022-12-03T11:23:29.830Z,6.686
2022-12-03T11:25:29.245Z,6.686
2022-12-03T11:26:26.940Z,6.686
2022-12-03T11:27:35.152Z,6.686
2022-12-03T11:28:20.762Z,6.686
2022-12-03T11:29:34.978Z,6.686
2022-12-03T11:30:21.981Z,6.686
2022-12-03T11:31:34.767Z,6.686
2022-12-03T11:33:35.310Z,6.686
2022-12-03T11:34:20.973Z,6.686
2022-12-03T11:35:35.476Z,6.686
2022-12-03T11:36:36.379Z,6.686
2022-12-03T11:37:27.116Z,6.686
2022-12-03T11:38:21.043Z,6.686
2022-12-03T11:39:39.717Z,6.625
2022-12-03T11:40:21.469Z,6.625
2022-12-03T11:41:21.974Z,6.645
2022-12-03T11:43:40.520Z,6.686
2022-12-03T11:44:20.802Z,6.686
2022-12-03T11:45:29.993Z,6.686
2022-12-03T11:46:20.552Z,6.686
2022-12-03T11:47:40.384Z,6.686
2022-12-03T11:48:20.740Z,6.686
2022-12-03T11:49:21.735Z,6.686
2022-12-03T11:51:20.537Z,6.686
2022-12-03T11:52:21.018Z,6.686
2022-12-03T11:53:20.339Z,6.686
2022-12-03T11:54:20.880Z,6.699
2022-12-03T11:55:21.708Z,6.686
2022-12-03T11:57:35.457Z,6.686
2022-12-03T11:58:21.239Z,6.687
2022-12-03T11:59:39.576Z,6.645
2022-12-03T12:01:40.125Z,6.686
2022-12-03T12:02:20.601Z,6.686
2022-12-03T12:03:49.224Z,6.686
2022-12-03T12:05:21.647Z,6.686
2022-12-03T12:06:21.361Z,6.708
2022-12-03T12:07:49.298Z,6.686
2022-12-03T12:08:20.536Z,6.686
2022-12-03T12:09:21.552Z,6.686
2022-12-03T12:11:20.389Z,6.686
2022-12-03T12:13:21.236Z,6.666
2022-12-03T12:14:20.942Z,6.686
2022-12-03T12:15:21.787Z,6.686
2022-12-03T12:17:21.769Z,6.686
2022-12-03T12:19:21.641Z,6.686
2022-12-03T12:20:21.636Z,6.635
2022-12-03T12:21:21.417Z,6.635
2022-12-03T12:22:21.520Z,6.656
2022-12-03T12:23:49.309Z,6.686
2022-12-03T12:24:21.331Z,6.686
2022-12-03T12:25:21.631Z,6.645
2022-12-03T12:26:21.387Z,6.686
2022-12-03T12:27:20.972Z,6.686
2022-12-03T12:28:21.221Z,6.686
2022-12-03T12:29:20.823Z,6.686
2022-12-03T12:30:21.498Z,6.686
2022-12-03T12:31:20.747Z,6.686
2022-12-03T12:32:21.773Z,6.686
2022-12-03T12:33:22.165Z,6.686
2022-12-03T12:34:20.584Z,6.686
2022-12-03T12:35:21.675Z,6.686
2022-12-03T12:36:21.175Z,6.686
2022-12-03T12:37:20.833Z,6.686
2022-12-03T12:38:21.522Z,6.729
2022-12-03T12:39:21.298Z,6.718
2022-12-03T12:40:21.332Z,6.75
2022-12-03T12:41:21.738Z,6.75
2022-12-03T12:42:21.286Z,6.75
2022-12-03T12:43:26.358Z,6.686
2022-12-03T12:44:21.266Z,6.686
2022-12-03T12:45:21.597Z,6.686
2022-12-03T12:46:54.038Z,6.697
2022-12-03T12:47:21.039Z,6.697
2022-12-03T12:48:21.219Z,6.75
2022-12-03T12:49:20.747Z,6.718
2022-12-03T12:50:21.745Z,6.718
2022-12-03T12:51:21.005Z,6.729
2022-12-03T12:52:21.277Z,6.697
2022-12-03T12:53:21.101Z,6.686
2022-12-03T12:54:20.453Z,6.729
2022-12-03T12:55:21.608Z,6.739
2022-12-03T12:56:21.375Z,6.75
2022-12-03T12:57:21.028Z,6.739
2022-12-03T12:58:20.803Z,6.75
2022-12-03T12:59:21.676Z,6.729
2022-12-03T13:01:20.967Z,6.686
2022-12-03T13:02:21.004Z,6.686
2022-12-03T13:03:20.633Z,6.739
2022-12-03T13:04:21.080Z,6.75
2022-12-03T13:05:21.402Z,6.75
2022-12-03T13:06:21.580Z,6.75
2022-12-03T13:07:21.400Z,6.75
2022-12-03T13:08:21.080Z,6.75
2022-12-03T13:09:20.593Z,6.75
2022-12-03T13:10:21.033Z,6.75
2022-12-03T13:11:19.955Z,6.75
2022-12-03T13:13:20.729Z,6.75
2022-12-03T13:15:21.418Z,6.714
2022-12-03T13:16:21.329Z,6.699
2022-12-03T13:17:21.252Z,6.75
2022-12-03T13:18:21.438Z,6.75
2022-12-03T13:19:21.083Z,6.75
2022-12-03T13:21:21.561Z,6.75
2022-12-03T13:22:21.536Z,6.75
2022-12-03T13:23:21.370Z,6.75
2022-12-03T13:24:21.697Z,6.75
2022-12-03T13:25:59.231Z,6.75
2022-12-03T13:26:43.910Z,6.75
2022-12-03T13:27:21.755Z,6.75
2022-12-03T13:29:21.093Z,6.75
2022-12-03T13:30:25.731Z,6.75
2022-12-03T13:31:21.135Z,6.75
2022-12-03T13:32:26.023Z,6.75
2022-12-03T13:33:21.228Z,6.75
2022-12-03T13:34:25.614Z,6.75
2022-12-03T13:35:21.683Z,6.75
2022-12-03T13:36:26.628Z,6.75
2022-12-03T13:37:21.324Z,6.75
2022-12-03T13:38:25.587Z,6.75
2022-12-03T13:39:21.588Z,6.75
2022-12-03T13:40:26.682Z,6.75
2022-12-03T13:41:21.435Z,6.75
2022-12-03T13:42:26.103Z,6.75
2022-12-03T13:43:20.600Z,6.75
2022-12-03T13:44:26.411Z,6.75
2022-12-03T13:45:21.997Z,6.75
2022-12-03T13:46:28.732Z,6.75
2022-12-03T13:47:21.599Z,6.75
2022-12-03T13:48:29.484Z,6.75
2022-12-03T13:49:21.796Z,6.75
2022-12-03T13:50:29.094Z,6.729
2022-12-03T13:51:20.723Z,6.729
2022-12-03T13:52:35.127Z,6.75
2022-12-03T13:53:20.596Z,6.75
2022-12-03T13:55:20.927Z,6.686
2022-12-03T13:56:35.129Z,6.708
2022-12-03T13:57:20.704Z,6.708
2022-12-03T13:58:34.929Z,6.75
2022-12-03T13:59:25.973Z,6.75
2022-12-03T14:00:35.718Z,6.75
2022-12-03T14:01:21.911Z,6.75
2022-12-03T14:02:25.908Z,6.75
2022-12-03T14:03:21.722Z,6.75
2022-12-03T14:04:35.075Z,6.75
2022-12-03T14:05:20.806Z,6.75
2022-12-03T14:06:29.600Z,6.75
2022-12-03T14:07:21.570Z,6.75
2022-12-03T14:08:29.962Z,6.75
2022-12-03T14:09:21.496Z,6.770
2022-12-03T14:10:40.657Z,6.75
2022-12-03T14:11:20.927Z,6.75
2022-12-03T14:12:40.809Z,6.770
2022-12-03T14:13:21.420Z,6.770
2022-12-03T14:14:39.682Z,6.75
2022-12-03T14:15:22.135Z,6.75
2022-12-03T14:17:21.851Z,6.770
2022-12-03T14:18:22.251Z,6.770
2022-12-03T14:19:20.976Z,6.75
2022-12-03T14:20:41.290Z,6.781
2022-12-03T14:21:21.153Z,6.781
2022-12-03T14:22:21.241Z,6.801
2022-12-03T14:23:20.974Z,6.770
2022-12-03T14:24:43.771Z,6.770
2022-12-03T14:25:21.973Z,6.811
2022-12-03T14:27:21.332Z,6.801
2022-12-03T14:28:21.482Z,6.811
2022-12-03T14:29:21.438Z,6.801
2022-12-03T14:30:49.139Z,6.801
2022-12-03T14:31:20.173Z,6.801
2022-12-03T14:32:21.495Z,6.781
2022-12-03T14:33:21.434Z,6.760
2022-12-03T14:35:21.048Z,6.760
2022-12-03T14:36:20.669Z,6.75
2022-12-03T14:37:22.066Z,6.791
2022-12-03T14:38:21.440Z,6.75
2022-12-03T14:39:21.245Z,6.787
2022-12-03T14:40:29.162Z,6.811
2022-12-03T14:41:21.068Z,6.799
2022-12-03T14:43:21.596Z,6.75
2022-12-03T14:45:21.125Z,6.799
2022-12-03T14:47:20.499Z,6.803
2022-12-03T14:49:20.828Z,6.760
2022-12-03T14:51:21.238Z,6.75
2022-12-03T14:52:21.107Z,6.75
2022-12-03T14:53:26.919Z,6.75
2022-12-03T14:54:20.981Z,6.75
2022-12-03T14:55:20.881Z,6.791
2022-12-03T14:56:21.940Z,6.781
2022-12-03T14:57:22.431Z,6.75